• Join FlightAware (Why Join?)
  • Login
  • US Flag GB Flag 
19:03 EDT


 

Airport Tracker/Info


-or-


 

Live Flight TrackerFlight Track Log ✈ DAL3678 ✈ 17-Apr-2013 ✈ KMKE - KDTW

Flight Track Log - Related Links

Times and Time Zones

All times are in EDT time to prevent confusion due to time zone crossing. See the DAL3678 flight status page for this flight to view local times or setup timezone preferences in your user account.

Time Position Orientation Groundspeed Altitude Reporting Facility
EDT Latitude Longitude Course Direction KTS MPH feet Rate Location/Type
15:58 42.9500 -87.8833 78° East 147 169 1,600  Level KMKE
15:59 42.9500 -87.8333 90° East 170 196 3,100 1,740 Climbing KMKE
16:00 42.9522 -87.7714 87° East 187 215 4,700 1,800 Climbing Chicago Center
16:01 42.9900 -87.4604 83° East  Level FlightAware Approximate
16:01 42.9608 -87.6697 83° East 255 293 6,700  Level Chicago Center
16:02 42.9997 -87.3533 83° East  Level FlightAware Approximate
16:02 42.9667 -87.5578 86° East 289 333 9,400  Level Chicago Center
16:03 43.0158 -87.2477 78° East  Level FlightAware Approximate
16:03 42.9814 -87.4269 81° East 301 346 11,900  Level Chicago Center
16:04 42.9972 -87.3164 79° East 336 387 13,200 1,440 Climbing Chicago Center
16:05 43.0142 -87.1794 80° East 363 418 14,900 1,680 Climbing Chicago Center
16:06 43.0353 -87.0114 80° East 376 433 16,700 1,440 Climbing Chicago Center
16:07 43.0531 -86.8658 80° East 386 444 17,900 1,140 Climbing Chicago Center
16:08 43.0717 -86.7167 80° East 398 458 19,100 1,080 Climbing Chicago Center
16:09 43.0917 -86.5617 80° East 412 474 20,200 900 Climbing Chicago Center
16:10 43.1106 -86.4044 81° East 416 479 21,000 780 Climbing Chicago Center
16:11 43.1300 -86.2411 81° East 430 495 21,900 960 Climbing Chicago Center
16:12 43.1503 -86.0828 80° East 420 483 23,000 480 Climbing Chicago Center
16:13 43.1694 -85.9147 81° East 431 496 23,000  Level Chicago Center
16:14 43.1892 -85.7439 81° East 444 511 23,000  Level Chicago Center
16:15 43.2083 -85.5714 81° East 452 520 23,000  Level Chicago Center
16:16 43.2281 -85.3989 81° East 457 526 23,000  Level Chicago Center
16:16 43.2361 -85.3228 82° East 445 512 23,000  Level Cleveland Center
16:17 43.2347 -85.1544 91° East 445 512 23,000  Level Cleveland Center
16:18 43.2033 -84.9925 105° East 431 496 23,000  Level Cleveland Center
16:19 43.1722 -84.8253 104° East 442 509 23,000  Level Cleveland Center
16:20 43.1408 -84.6550 104° East 448 516 23,000  Level Cleveland Center
16:21 43.1086 -84.4967 106° East 442 509 23,000 -780 Level Cleveland Center
16:22 43.0722 -84.3408 108° East 442 509 21,500 -1,800 Descending Cleveland Center
16:23 43.0239 -84.2214 119° Southeast 416 479 19,500 -1,920 Descending Cleveland Center
16:24 42.9700 -84.0792 117° Southeast 411 473 17,700 -2,220 Descending Cleveland Center
16:25 42.9411 -83.9981 116° Southeast 398 458 16,200 -2,340 Descending Cleveland Center
16:25 42.9194 -83.9514 122° Southeast 400 460 15,400 -2,460 Descending Cleveland Center
16:26 42.8961 -83.8936 119° Southeast 370 426 14,200 -2,340 Descending Cleveland Center
16:26 42.8711 -83.8269 117° Southeast 388 447 13,100 -2,100 Descending Cleveland Center
16:27 42.8497 -83.7722 118° Southeast 363 418 12,100 -1,140 Descending Cleveland Center
16:27 42.8133 -83.7278 138° Southeast 363 418 12,000 -240 Descending Cleveland Center
16:28 42.7722 -83.7003 154° Southeast 322 371 11,900  Descending Cleveland Center
16:28 42.7314 -83.6756 156° South 331 381 12,000  Climbing Cleveland Center
16:29 42.6903 -83.6508 156° South 329 379 11,900 -120 Descending Cleveland Center
16:29 42.6375 -83.6175 155° Southeast 334 384 11,900  Level FAA TRACON SMA TRACON (SMA)
16:30 42.6108 -83.6017 156° South 336 387 11,900 -360 Level FAA TRACON SMA TRACON (SMA)
16:30 42.5842 -83.5861 157° South 336 387 11,700 -600 Descending FAA TRACON SMA TRACON (SMA)
16:30 42.5608 -83.5742 159° South 330 380 11,500 -1,080 Descending Cleveland Center
16:31 42.5117 -83.5492 159° South 339 390 10,900 -540 Descending Cleveland Center
16:31 42.4747 -83.5250 154° Southeast 335 386 11,000 60 Climbing Cleveland Center
16:32 42.4336 -83.5006 156° South 288 331 11,000  Level Cleveland Center
16:32 42.3986 -83.4822 159° South 321 369 11,000  Level Cleveland Center
16:33 42.3553 -83.4517 152° Southeast 240 276 11,000  Level FAA TRACON SMA TRACON (SMA)
16:33 42.3300 -83.4419 164° South 243 280 11,000  Level FAA TRACON SMA TRACON (SMA)
16:34 42.3131 -83.4339 161° South 243 280 11,000 -360 Level FAA TRACON SMA TRACON (SMA)
16:34 42.2897 -83.4275 169° South 241 277 10,800 -900 Descending FAA TRACON SMA TRACON (SMA)
16:34 42.2703 -83.4339 194° South 233 268 10,400 -1,200 Descending FAA TRACON SMA TRACON (SMA)
16:35 42.2528 -83.4461 207° Southwest 230 265 10,000 -1,380 Descending FAA TRACON SMA TRACON (SMA)
16:35 42.2311 -83.4617 208° Southwest 234 269 9,500 -1,440 Descending FAA TRACON SMA TRACON (SMA)
16:35 42.2139 -83.4747 209° Southwest 229 264 9,100 -1,440 Descending FAA TRACON SMA TRACON (SMA)
16:36 42.1972 -83.4881 211° Southwest 227 261 8,600 -1,500 Descending FAA TRACON SMA TRACON (SMA)
16:36 42.1772 -83.5042 211° Southwest 221 254 8,100 -900 Descending FAA TRACON SMA TRACON (SMA)
16:36 42.1614 -83.5175 212° Southwest 219 252 8,000 -180 Descending FAA TRACON SMA TRACON (SMA)
16:37 42.1456 -83.5306 211° Southwest 218 251 8,000  Level FAA TRACON SMA TRACON (SMA)
16:37 42.1258 -83.5472 212° Southwest 218 251 8,000  Level FAA TRACON SMA TRACON (SMA)
16:37 42.1100 -83.5611 213° Southwest 218 251 8,000  Level FAA TRACON SMA TRACON (SMA)
16:38 42.0906 -83.5781 213° Southwest 218 251 8,000 -480 Level FAA TRACON SMA TRACON (SMA)
16:38 42.0750 -83.5922 214° Southwest 219 252 7,700 -900 Descending FAA TRACON SMA TRACON (SMA)
16:38 42.0597 -83.6061 214° Southwest 217 250 7,400 -1,380 Descending FAA TRACON SMA TRACON (SMA)
16:39 42.0411 -83.6231 214° Southwest 212 244 6,800 -1,500 Descending FAA TRACON SMA TRACON (SMA)
16:39 42.0250 -83.6319 202° Southwest 208 239 6,400 -1,380 Descending FAA TRACON SMA TRACON (SMA)
16:39 42.0089 -83.6231 158° South 218 251 5,900 -1,200 Descending FAA TRACON SMA TRACON (SMA)
16:40 41.9975 -83.5975 121° Southeast 203 234 5,600 -780 Descending FAA TRACON SMA TRACON (SMA)
16:40 41.9914 -83.5808 116° Southeast 185 213 5,400 -780 Descending FAA TRACON SMA TRACON (SMA)
16:40 41.9911 -83.5539 91° East 197 227 5,100 -600 Descending FAA TRACON SMA TRACON (SMA)
16:41 42.0011 -83.5342 56° Northeast 200 230 5,000 -180 Descending FAA TRACON SMA TRACON (SMA)
16:41 42.0167 -83.5186 37° Northeast 205 236 5,000  Level FAA TRACON SMA TRACON (SMA)